createdAt,value
2019-02-19T00:03:07.830Z,2.43
2019-02-19T00:05:18.671Z,2.43
2019-02-19T00:07:29.525Z,2.33
2019-02-19T00:09:40.317Z,2.27
2019-02-19T00:11:51.132Z,2.31
2019-02-19T00:14:01.943Z,2.36
2019-02-19T00:16:12.779Z,2.37
2019-02-19T00:18:23.582Z,2.40
2019-02-19T00:20:34.428Z,2.41
2019-02-19T00:22:45.247Z,2.45
2019-02-19T00:24:56.057Z,2.51
2019-02-19T00:27:06.879Z,2.57
2019-02-19T00:29:17.669Z,2.54
2019-02-19T00:31:28.485Z,2.50
2019-02-19T00:33:39.288Z,2.31
2019-02-19T00:35:50.093Z,2.30
2019-02-19T00:38:00.913Z,2.30
2019-02-19T00:40:11.717Z,2.31
2019-02-19T00:42:22.526Z,2.32
2019-02-19T00:44:33.337Z,2.26
2019-02-19T00:46:44.146Z,2.24
2019-02-19T00:48:54.945Z,2.12
2019-02-19T00:51:05.843Z,2.07
2019-02-19T00:53:16.653Z,2.05
2019-02-19T00:55:27.472Z,2.04
2019-02-19T00:57:38.290Z,2.12
2019-02-19T00:59:49.107Z,2.20
2019-02-19T01:01:59.917Z,2.27
2019-02-19T01:04:10.743Z,2.33
2019-02-19T01:06:21.552Z,2.35
2019-02-19T01:08:32.370Z,2.32
2019-02-19T01:10:43.158Z,2.21
2019-02-19T01:12:54.005Z,2.12
2019-02-19T01:15:26.566Z,2.14
2019-02-19T01:17:37.399Z,2.12
2019-02-19T01:19:48.209Z,2.14
2019-02-19T01:21:58.998Z,2.19
2019-02-19T01:24:09.835Z,2.14
2019-02-19T01:26:20.621Z,2.15
2019-02-19T01:28:31.430Z,2.17
2019-02-19T01:30:42.229Z,2.18
2019-02-19T01:32:53.027Z,2.19
2019-02-19T01:35:45.489Z,2.14
2019-02-19T01:37:56.291Z,2.15
2019-02-19T01:40:48.760Z,2.20
2019-02-19T01:42:59.548Z,2.18
2019-02-19T01:45:10.366Z,2.15
2019-02-19T01:47:41.053Z,2.07
2019-02-19T01:49:51.869Z,2.07
2019-02-19T01:52:02.654Z,1.99
2019-02-19T01:54:13.471Z,1.87
2019-02-19T01:56:24.269Z,1.86
2019-02-19T01:58:35.093Z,1.78
2019-02-19T02:00:45.901Z,1.68
2019-02-19T02:02:56.794Z,1.68
2019-02-19T02:05:07.699Z,1.63
2019-02-19T02:07:18.499Z,1.61
2019-02-19T02:09:29.318Z,1.59
2019-02-19T02:11:40.146Z,1.63
2019-02-19T02:13:50.958Z,1.63
2019-02-19T02:16:01.866Z,1.63
2019-02-19T02:18:12.657Z,1.64
2019-02-19T02:20:23.497Z,1.63
2019-02-19T02:22:34.421Z,1.66
2019-02-19T02:24:45.228Z,1.70
2019-02-19T02:26:56.052Z,1.72
2019-02-19T02:29:06.841Z,1.72
2019-02-19T02:31:17.650Z,1.73
2019-02-19T02:33:28.446Z,1.76
2019-02-19T02:35:39.270Z,1.81
2019-02-19T02:37:50.064Z,1.84
2019-02-19T02:40:01.056Z,1.85
2019-02-19T02:42:11.899Z,1.82
2019-02-19T02:44:22.668Z,1.86
2019-02-19T02:46:33.486Z,1.90
2019-02-19T02:48:44.270Z,1.90
2019-02-19T02:50:55.092Z,1.94
2019-02-19T02:53:05.887Z,1.91
2019-02-19T02:55:16.843Z,1.87
2019-02-19T02:57:27.660Z,1.76
2019-02-19T02:59:38.484Z,1.66
2019-02-19T03:01:49.398Z,1.65
2019-02-19T03:04:20.097Z,1.68
2019-02-19T03:08:49.928Z,1.69
2019-02-19T03:11:00.733Z,1.64
2019-02-19T03:13:11.549Z,1.59
2019-02-19T03:15:22.349Z,1.57
2019-02-19T03:17:33.155Z,1.48
2019-02-19T03:19:43.970Z,1.38
2019-02-19T03:21:54.771Z,1.34
2019-02-19T03:24:05.569Z,1.32
2019-02-19T03:26:16.351Z,1.30
2019-02-19T03:28:27.169Z,1.38
2019-02-19T03:30:37.977Z,1.40
2019-02-19T03:32:48.793Z,1.50
2019-02-19T03:34:59.572Z,1.51
2019-02-19T03:37:10.403Z,1.52
2019-02-19T03:39:21.186Z,1.59
2019-02-19T03:41:32.101Z,1.69
2019-02-19T03:43:42.934Z,1.68
2019-02-19T03:45:53.736Z,1.74
2019-02-19T03:48:04.547Z,1.76
2019-02-19T03:50:15.347Z,1.84
2019-02-19T03:52:26.157Z,1.85
2019-02-19T03:54:36.971Z,1.87
2019-02-19T03:56:47.803Z,1.85
2019-02-19T03:58:58.610Z,1.81
2019-02-19T04:01:09.538Z,1.86
2019-02-19T04:03:20.370Z,1.87
2019-02-19T04:05:31.156Z,1.82
2019-02-19T04:07:41.947Z,1.83
2019-02-19T04:09:52.768Z,1.86
2019-02-19T04:12:03.572Z,1.83
2019-02-19T04:14:14.377Z,1.82
2019-02-19T04:16:25.283Z,1.81
2019-02-19T04:18:36.083Z,1.88
2019-02-19T04:20:46.889Z,1.91
2019-02-19T04:22:57.684Z,1.90
2019-02-19T04:25:08.496Z,1.96
2019-02-19T04:28:00.947Z,1.95
2019-02-19T04:30:11.768Z,1.94
2019-02-19T04:32:22.556Z,2.00
2019-02-19T04:34:33.361Z,1.93
2019-02-19T04:36:44.154Z,1.95
2019-02-19T04:38:54.946Z,1.97
2019-02-19T04:41:05.756Z,1.98
2019-02-19T04:43:16.540Z,1.95
2019-02-19T04:45:27.368Z,1.96
2019-02-19T04:47:38.158Z,1.95
2019-02-19T04:49:48.979Z,1.99
2019-02-19T04:51:59.762Z,2.00
2019-02-19T04:54:10.565Z,1.98
2019-02-19T04:56:21.406Z,2.00
2019-02-19T04:58:32.189Z,2.07
2019-02-19T05:00:43.025Z,2.01
2019-02-19T05:02:53.824Z,1.95
2019-02-19T05:05:46.285Z,2.02
2019-02-19T05:07:57.087Z,2.01
2019-02-19T05:10:08.115Z,1.92
2019-02-19T05:12:18.913Z,1.93
2019-02-19T05:14:29.698Z,1.94
2019-02-19T05:16:41.258Z,1.98
2019-02-19T05:21:25.588Z,2.00
2019-02-19T05:23:36.380Z,2.01
2019-02-19T05:25:47.193Z,2.32
2019-02-19T05:27:57.990Z,2.36
2019-02-19T05:30:50.443Z,2.29
2019-02-19T05:33:01.268Z,2.29
2019-02-19T05:35:12.059Z,2.24
2019-02-19T05:37:22.875Z,2.25
2019-02-19T05:39:33.676Z,2.33
2019-02-19T05:41:44.493Z,2.30
2019-02-19T05:43:55.291Z,2.32
2019-02-19T05:46:06.123Z,2.31
2019-02-19T05:48:17.011Z,2.27
2019-02-19T05:50:27.809Z,2.26
2019-02-19T05:52:38.621Z,2.28
2019-02-19T05:54:50.634Z,2.31
2019-02-19T05:57:21.444Z,2.35
2019-02-19T05:59:32.616Z,2.38
2019-02-19T06:01:45.029Z,2.41
2019-02-19T06:03:55.833Z,2.49
2019-02-19T06:06:06.631Z,2.53
2019-02-19T06:08:17.436Z,2.58
2019-02-19T06:10:28.238Z,2.68
2019-02-19T06:12:39.052Z,2.78
2019-02-19T06:14:49.845Z,2.87
2019-02-19T06:17:00.682Z,2.99
2019-02-19T06:19:11.595Z,3.11
2019-02-19T06:21:22.439Z,3.19
2019-02-19T06:23:33.276Z,3.25
2019-02-19T06:25:44.075Z,3.28
2019-02-19T06:27:54.949Z,3.31
2019-02-19T06:30:25.616Z,3.28
2019-02-19T06:32:36.425Z,3.25
2019-02-19T06:34:47.219Z,3.30
2019-02-19T06:36:58.019Z,3.36
2019-02-19T06:39:08.854Z,3.45
2019-02-19T06:41:19.657Z,3.52
2019-02-19T06:43:30.504Z,3.62
2019-02-19T06:45:41.301Z,3.72
2019-02-19T06:47:52.119Z,3.83
2019-02-19T06:50:44.571Z,3.95
2019-02-19T06:52:55.389Z,4.02
2019-02-19T06:55:06.216Z,4.17
2019-02-19T06:57:17.006Z,4.30
2019-02-19T06:59:27.925Z,4.43
2019-02-19T07:06:30.763Z,4.84
2019-02-19T07:08:42.770Z,4.98
2019-02-19T07:10:53.572Z,5.11
2019-02-19T07:13:04.382Z,5.20
2019-02-19T07:15:15.300Z,5.28
2019-02-19T07:17:26.102Z,5.41
2019-02-19T07:19:36.945Z,5.60
2019-02-19T07:21:47.730Z,5.70
2019-02-19T07:24:04.378Z,5.86
2019-02-19T07:26:11.249Z,5.99
2019-02-19T07:28:22.060Z,6.08
2019-02-19T07:30:32.880Z,6.13
2019-02-19T07:32:43.719Z,6.19
2019-02-19T07:34:54.531Z,6.32
2019-02-19T07:37:05.400Z,6.38
2019-02-19T07:39:16.199Z,6.44
2019-02-19T07:41:27.025Z,6.50
2019-02-19T07:43:37.854Z,6.48
2019-02-19T07:45:48.662Z,6.52
2019-02-19T07:47:59.454Z,6.58
2019-02-19T07:50:51.920Z,6.65
2019-02-19T07:53:02.728Z,6.71
2019-02-19T07:55:13.582Z,6.82
2019-02-19T07:57:24.365Z,6.87
2019-02-19T07:59:35.235Z,6.92
2019-02-19T08:01:46.007Z,7.05
2019-02-19T08:03:56.835Z,7.14
2019-02-19T08:06:07.658Z,7.23
2019-02-19T08:08:18.525Z,7.31
2019-02-19T08:10:29.346Z,7.35
2019-02-19T08:12:40.161Z,7.40
2019-02-19T08:14:50.973Z,7.46
2019-02-19T08:17:01.782Z,7.51
2019-02-19T08:19:12.599Z,7.54
2019-02-19T08:21:23.475Z,7.58
2019-02-19T08:23:34.261Z,7.63
2019-02-19T08:25:45.065Z,7.66
2019-02-19T08:27:55.891Z,7.69
2019-02-19T08:30:48.399Z,7.75
2019-02-19T08:32:59.206Z,7.83
2019-02-19T08:35:10.009Z,7.94
2019-02-19T08:37:20.827Z,8.00
2019-02-19T08:39:31.618Z,8.06
2019-02-19T08:41:42.525Z,8.17
2019-02-19T08:43:53.328Z,8.46
2019-02-19T08:46:04.137Z,8.80
2019-02-19T08:48:14.948Z,9.03
2019-02-19T08:50:25.838Z,9.40
2019-02-19T08:52:36.669Z,9.95
2019-02-19T08:54:47.456Z,10.47
2019-02-19T08:56:58.311Z,10.98
2019-02-19T08:59:09.093Z,11.45
2019-02-19T09:01:19.908Z,11.70
2019-02-19T09:03:30.727Z,11.83
2019-02-19T09:05:41.534Z,12.06
2019-02-19T09:07:52.342Z,12.32
2019-02-19T09:10:24.910Z,12.48
2019-02-19T09:12:35.746Z,12.45
2019-02-19T09:14:46.550Z,12.43
2019-02-19T09:16:57.456Z,12.49
2019-02-19T09:19:08.269Z,12.46
2019-02-19T09:21:19.116Z,12.31
2019-02-19T09:23:29.938Z,12.20
2019-02-19T09:25:40.731Z,12.04
2019-02-19T09:27:51.588Z,11.95
2019-02-19T09:30:44.017Z,11.88
2019-02-19T09:32:54.838Z,11.81
2019-02-19T09:35:47.309Z,11.69
2019-02-19T09:37:58.156Z,11.62
2019-02-19T09:40:50.588Z,11.61
2019-02-19T09:43:01.418Z,11.59
2019-02-19T09:45:12.315Z,11.84
2019-02-19T09:47:23.120Z,12.00
2019-02-19T09:49:33.921Z,12.10
2019-02-19T09:54:36.952Z,12.34
2019-02-19T09:56:47.745Z,12.49
2019-02-19T09:58:58.572Z,12.49
2019-02-19T10:01:09.378Z,12.49
2019-02-19T10:05:52.546Z,12.23
2019-02-19T10:08:03.352Z,12.21
2019-02-19T10:10:55.823Z,12.25
2019-02-19T10:13:06.645Z,12.36
2019-02-19T10:15:17.449Z,12.41
2019-02-19T10:17:28.247Z,12.39
2019-02-19T10:19:39.075Z,12.27
2019-02-19T10:21:49.881Z,12.17
2019-02-19T10:24:00.713Z,12.20
2019-02-19T10:26:11.532Z,12.41
2019-02-19T10:28:22.332Z,12.64
2019-02-19T10:30:33.146Z,12.90
2019-02-19T10:32:43.959Z,13.11
2019-02-19T10:34:54.756Z,13.09
2019-02-19T10:37:05.653Z,12.89
2019-02-19T10:39:16.452Z,12.86
2019-02-19T10:41:27.273Z,12.98
2019-02-19T10:43:38.055Z,13.18
2019-02-19T10:45:48.987Z,13.33
2019-02-19T10:47:59.768Z,13.62
2019-02-19T10:50:10.660Z,13.80
2019-02-19T10:52:21.615Z,13.92
2019-02-19T10:54:32.413Z,14.02
2019-02-19T10:56:50.246Z,14.04
2019-02-19T10:59:01.048Z,13.91
2019-02-19T11:01:11.969Z,13.67
2019-02-19T11:03:22.777Z,13.50
2019-02-19T11:05:33.590Z,13.34
2019-02-19T11:07:44.400Z,13.29
2019-02-19T11:09:55.207Z,13.30
2019-02-19T11:12:06.021Z,13.37
2019-02-19T11:14:16.809Z,13.55
2019-02-19T11:16:27.658Z,13.72
2019-02-19T11:18:38.449Z,13.73
2019-02-19T11:20:49.271Z,13.77
2019-02-19T11:23:00.112Z,13.88
2019-02-19T11:25:52.578Z,13.97
2019-02-19T11:28:03.385Z,13.99
2019-02-19T11:30:55.860Z,14.03
2019-02-19T11:33:06.675Z,14.13
2019-02-19T11:35:17.477Z,14.14
2019-02-19T11:37:28.291Z,14.28
2019-02-19T11:39:39.086Z,14.25
2019-02-19T11:41:49.922Z,14.12
2019-02-19T11:44:00.737Z,13.85
2019-02-19T11:46:11.530Z,13.87
2019-02-19T11:48:22.344Z,13.78
2019-02-19T11:50:33.157Z,13.69
2019-02-19T11:52:43.992Z,13.60
2019-02-19T11:54:54.800Z,13.53
2019-02-19T11:57:05.597Z,13.59
2019-02-19T11:59:16.420Z,13.52
2019-02-19T12:01:27.220Z,13.55
2019-02-19T12:03:38.039Z,13.48
2019-02-19T12:05:48.918Z,13.37
2019-02-19T12:07:59.738Z,13.26
2019-02-19T12:10:12.030Z,13.19
2019-02-19T12:12:23.375Z,13.11
2019-02-19T12:14:34.265Z,12.91
2019-02-19T12:16:45.060Z,12.81
2019-02-19T12:18:55.912Z,12.63
2019-02-19T12:21:06.726Z,12.54
2019-02-19T12:23:17.567Z,12.34
2019-02-19T12:25:28.368Z,12.25
2019-02-19T12:27:39.185Z,12.10
2019-02-19T12:29:50.009Z,11.96
2019-02-19T12:32:00.817Z,11.87
2019-02-19T12:34:11.645Z,11.70
2019-02-19T12:36:22.460Z,11.60
2019-02-19T12:38:33.265Z,11.53
2019-02-19T12:40:44.086Z,11.41
2019-02-19T12:42:54.875Z,11.31
2019-02-19T12:45:47.355Z,11.14
2019-02-19T12:47:58.167Z,11.05
2019-02-19T12:50:50.633Z,11.00
2019-02-19T12:53:01.435Z,10.94
2019-02-19T12:55:12.344Z,10.91
2019-02-19T12:57:23.125Z,10.77
2019-02-19T12:59:33.939Z,10.69
2019-02-19T13:01:44.762Z,10.64
2019-02-19T13:03:55.585Z,10.64
2019-02-19T13:06:06.403Z,10.61
2019-02-19T13:08:17.199Z,10.63
2019-02-19T13:10:27.997Z,10.64
2019-02-19T13:12:38.813Z,10.60
2019-02-19T13:14:49.619Z,10.57
2019-02-19T13:17:00.449Z,10.49
2019-02-19T13:19:11.254Z,10.44
2019-02-19T13:21:22.070Z,10.43
2019-02-19T13:23:32.876Z,10.42
2019-02-19T13:25:43.687Z,10.44
2019-02-19T13:27:54.521Z,10.37
2019-02-19T13:30:46.998Z,10.32
2019-02-19T13:32:57.801Z,10.27
2019-02-19T13:35:50.762Z,10.21
2019-02-19T13:38:01.596Z,10.19
2019-02-19T13:40:54.069Z,10.18
2019-02-19T13:43:04.891Z,10.16
2019-02-19T13:45:15.799Z,10.12
2019-02-19T13:47:26.637Z,10.06
2019-02-19T13:49:37.454Z,10.01
2019-02-19T13:51:48.391Z,9.98
2019-02-19T13:54:19.096Z,9.98
2019-02-19T13:56:29.893Z,9.97
2019-02-19T13:58:40.721Z,9.92
2019-02-19T14:00:51.515Z,9.92
2019-02-19T14:03:02.449Z,9.91
2019-02-19T14:05:13.272Z,9.93
2019-02-19T14:07:24.139Z,9.88
2019-02-19T14:09:34.985Z,9.89
2019-02-19T14:11:45.809Z,9.87
2019-02-19T14:18:54.448Z,9.87
2019-02-19T14:23:57.485Z,10.02
2019-02-19T14:26:28.183Z,10.04
2019-02-19T14:28:58.880Z,10.04
2019-02-19T14:31:29.570Z,10.08
2019-02-19T14:34:00.264Z,10.11
2019-02-19T14:36:30.942Z,10.13
2019-02-19T14:39:01.639Z,10.17
2019-02-19T14:41:32.414Z,10.21
2019-02-19T14:44:03.133Z,10.24
2019-02-19T14:46:33.799Z,10.29
2019-02-19T14:49:04.510Z,10.30
2019-02-19T14:54:07.570Z,10.38
2019-02-19T14:56:38.268Z,10.41
2019-02-19T15:01:41.311Z,10.52
2019-02-19T15:04:12.025Z,10.62
2019-02-19T15:06:42.724Z,10.71
2019-02-19T15:09:13.405Z,10.68
2019-02-19T15:11:44.124Z,10.71
2019-02-19T15:14:14.808Z,10.71
2019-02-19T15:16:45.499Z,10.73
2019-02-19T15:19:19.907Z,10.74
2019-02-19T15:24:07.418Z,10.65
2019-02-19T15:28:57.185Z,11.64
2019-02-19T15:31:27.869Z,12.02
2019-02-19T15:33:58.562Z,12.27
2019-02-19T15:36:29.348Z,12.04
2019-02-19T15:39:00.018Z,11.71
2019-02-19T15:41:30.728Z,11.37
2019-02-19T15:44:01.416Z,11.06
2019-02-19T15:49:04.585Z,10.84
2019-02-19T15:51:35.272Z,10.77
2019-02-19T15:56:38.353Z,10.59
2019-02-19T15:59:09.121Z,10.53
2019-02-19T16:06:30.596Z,10.39
2019-02-19T16:11:33.728Z,10.29
2019-02-19T16:14:04.435Z,10.27
2019-02-19T16:19:07.614Z,10.20
2019-02-19T16:21:38.306Z,10.13
2019-02-19T16:24:09.002Z,10.12
2019-02-19T16:33:49.709Z,9.95
2019-02-19T16:38:52.809Z,9.88
2019-02-19T16:41:23.597Z,9.84
2019-02-19T16:43:54.308Z,9.87
2019-02-19T16:48:57.373Z,9.78
2019-02-19T16:51:28.058Z,9.71
2019-02-19T16:53:58.754Z,9.66
2019-02-19T16:56:29.937Z,9.61
2019-02-19T16:59:07.232Z,9.65
2019-02-19T17:01:33.247Z,9.59
2019-02-19T17:04:03.976Z,9.54
2019-02-19T17:09:07.069Z,9.54
2019-02-19T17:13:58.538Z,9.46
2019-02-19T17:16:28.912Z,9.43
2019-02-19T17:18:59.604Z,9.37
2019-02-19T17:21:30.327Z,9.33
2019-02-19T17:31:10.662Z,9.24
2019-02-19T17:33:41.359Z,9.21
2019-02-19T17:36:12.063Z,9.16
2019-02-19T17:38:42.750Z,9.12
2019-02-19T17:45:51.106Z,9.00
2019-02-19T17:48:21.793Z,8.96
2019-02-19T17:53:14.924Z,8.88
2019-02-19T18:02:55.394Z,8.74
2019-02-19T18:05:26.174Z,8.71
2019-02-19T18:07:56.878Z,8.67
2019-02-19T18:10:27.676Z,8.63
2019-02-19T18:15:17.398Z,8.54
2019-02-19T18:17:48.225Z,8.49
2019-02-19T18:19:59.041Z,8.46
2019-02-19T18:22:09.896Z,8.41
2019-02-19T18:24:21.027Z,8.39
2019-02-19T18:26:53.563Z,8.39
2019-02-19T18:29:04.386Z,8.37
2019-02-19T18:31:15.185Z,8.33
2019-02-19T18:33:26.021Z,8.24
2019-02-19T18:35:36.919Z,8.08
2019-02-19T18:37:47.757Z,7.94
2019-02-19T18:39:58.584Z,7.79
2019-02-19T18:42:09.414Z,7.71
2019-02-19T18:44:20.245Z,7.65
2019-02-19T18:46:31.048Z,7.64
2019-02-19T18:48:41.870Z,7.60
2019-02-19T18:50:58.420Z,7.57
2019-02-19T18:53:05.569Z,7.51
2019-02-19T18:55:16.459Z,7.43
2019-02-19T18:57:27.264Z,7.40
2019-02-19T18:59:38.083Z,7.37
2019-02-19T19:01:48.889Z,7.29
2019-02-19T19:03:59.785Z,7.19
2019-02-19T19:06:10.575Z,7.08
2019-02-19T19:08:21.412Z,6.92
2019-02-19T19:10:32.379Z,6.82
2019-02-19T19:12:43.307Z,6.75
2019-02-19T19:14:54.176Z,6.70
2019-02-19T19:17:05.082Z,6.65
2019-02-19T19:19:15.930Z,6.55
2019-02-19T19:21:26.827Z,6.46
2019-02-19T19:23:37.659Z,6.37
2019-02-19T19:25:48.647Z,6.30
2019-02-19T19:27:59.437Z,6.15
2019-02-19T19:30:30.178Z,6.07
2019-02-19T19:32:40.982Z,5.97
2019-02-19T19:34:51.805Z,5.90
2019-02-19T19:37:02.650Z,5.84
2019-02-19T19:39:13.475Z,5.82
2019-02-19T19:41:24.311Z,5.78
2019-02-19T19:43:37.190Z,5.67
2019-02-19T19:45:47.887Z,5.51
2019-02-19T19:47:58.706Z,5.32
2019-02-19T19:50:31.328Z,5.18
2019-02-19T19:52:42.136Z,5.20
2019-02-19T19:54:52.932Z,5.25
2019-02-19T19:57:04.498Z,5.26
2019-02-19T19:59:16.493Z,5.21
2019-02-19T20:01:27.335Z,5.16
2019-02-19T20:03:38.226Z,5.12
2019-02-19T20:05:49.091Z,5.09
2019-02-19T20:08:00.028Z,5.01
2019-02-19T20:10:52.487Z,4.92
2019-02-19T20:13:03.410Z,4.89
2019-02-19T20:15:14.284Z,4.88
2019-02-19T20:17:25.107Z,4.86
2019-02-19T20:19:35.970Z,4.85
2019-02-19T20:21:46.890Z,4.77
2019-02-19T20:23:57.817Z,4.80
2019-02-19T20:26:08.649Z,4.82
2019-02-19T20:28:19.489Z,4.80
2019-02-19T20:30:30.301Z,4.80
2019-02-19T20:32:41.152Z,4.78
2019-02-19T20:34:52.052Z,4.79
2019-02-19T20:37:03.023Z,4.81
2019-02-19T20:39:13.833Z,4.77
2019-02-19T20:41:24.659Z,4.76
2019-02-19T20:43:35.521Z,4.65
2019-02-19T20:45:46.340Z,4.51
2019-02-19T20:47:57.179Z,4.39
2019-02-19T20:50:49.630Z,4.33
2019-02-19T20:53:00.465Z,4.30
2019-02-19T20:55:11.384Z,4.26
2019-02-19T20:57:22.218Z,4.19
2019-02-19T20:59:33.063Z,4.17
2019-02-19T21:01:43.896Z,4.13
2019-02-19T21:03:54.848Z,4.08
2019-02-19T21:06:05.676Z,4.06
2019-02-19T21:08:16.563Z,4.10
2019-02-19T21:10:27.377Z,4.11
2019-02-19T21:12:38.203Z,4.10
2019-02-19T21:14:49.039Z,4.10
2019-02-19T21:16:59.918Z,4.11
2019-02-19T21:19:10.759Z,4.07
2019-02-19T21:21:21.628Z,4.01
2019-02-19T21:23:32.459Z,3.96
2019-02-19T21:25:43.282Z,3.89
2019-02-19T21:27:54.108Z,3.86
2019-02-19T21:30:24.825Z,3.77
2019-02-19T21:32:35.667Z,3.69
2019-02-19T21:34:46.500Z,3.53
2019-02-19T21:36:57.349Z,3.49
2019-02-19T21:39:08.255Z,3.48
2019-02-19T21:41:19.091Z,3.48
2019-02-19T21:43:30.013Z,3.42
2019-02-19T21:45:40.885Z,3.34
2019-02-19T21:47:51.719Z,3.31
2019-02-19T21:50:44.207Z,3.32
2019-02-19T21:52:55.008Z,3.33
2019-02-19T21:55:47.515Z,3.34
2019-02-19T21:57:59.693Z,3.33
2019-02-19T22:00:52.659Z,3.26
2019-02-19T22:03:03.508Z,3.24
2019-02-19T22:05:14.351Z,3.24
2019-02-19T22:07:25.185Z,3.16
2019-02-19T22:09:35.968Z,3.17
2019-02-19T22:11:46.805Z,3.17
2019-02-19T22:13:57.596Z,3.17
2019-02-19T22:16:08.432Z,3.21
2019-02-19T22:18:19.219Z,3.23
2019-02-19T22:20:49.958Z,3.22
2019-02-19T22:23:00.764Z,3.17
2019-02-19T22:25:11.548Z,3.17
2019-02-19T22:27:22.370Z,3.15
2019-02-19T22:29:33.193Z,3.11
2019-02-19T22:31:44.050Z,3.04
2019-02-19T22:33:54.940Z,2.98
2019-02-19T22:36:05.822Z,2.87
2019-02-19T22:38:16.655Z,2.86
2019-02-19T22:40:27.486Z,2.87
2019-02-19T22:42:38.298Z,2.83
2019-02-19T22:44:49.104Z,2.84
2019-02-19T22:47:00.045Z,2.88
2019-02-19T22:49:10.850Z,2.93
2019-02-19T22:51:21.674Z,2.97
2019-02-19T22:53:52.358Z,2.95
2019-02-19T22:58:35.563Z,2.94
2019-02-19T23:03:38.705Z,2.82
2019-02-19T23:05:49.619Z,2.73
2019-02-19T23:08:00.448Z,2.68
2019-02-19T23:10:11.244Z,2.69
2019-02-19T23:12:22.037Z,2.64
2019-02-19T23:14:32.960Z,2.60
2019-02-19T23:16:43.753Z,2.55
2019-02-19T23:18:54.595Z,2.53
2019-02-19T23:21:05.439Z,2.54
2019-02-19T23:23:16.240Z,2.60
2019-02-19T23:25:27.106Z,2.69
2019-02-19T23:27:37.915Z,2.75
2019-02-19T23:29:48.731Z,2.76
2019-02-19T23:31:59.516Z,2.73
2019-02-19T23:34:10.336Z,2.69
2019-02-19T23:36:41.017Z,2.71
2019-02-19T23:38:51.846Z,2.66
2019-02-19T23:41:02.752Z,2.60
2019-02-19T23:43:13.536Z,2.58
2019-02-19T23:45:24.384Z,2.52
2019-02-19T23:47:35.189Z,2.48
2019-02-19T23:49:46.005Z,2.45
2019-02-19T23:51:56.805Z,2.47
2019-02-19T23:54:07.611Z,2.49
2019-02-19T23:56:18.412Z,2.48
2019-02-19T23:58:29.219Z,2.49
